sensor_id;sensor_type;location;lat;lon;timestamp;P1;durP1;ratioP1;P2;durP2;ratioP2
70320;SDS011;61127;55.826;37.046;2023-04-24T00:02:15;18.13;;;8.27;;
70320;SDS011;61127;55.826;37.046;2023-04-24T00:04:41;17.35;;;7.45;;
70320;SDS011;61127;55.826;37.046;2023-04-24T00:07:13;20.13;;;6.93;;
70320;SDS011;61127;55.826;37.046;2023-04-24T00:09:39;16.98;;;7.30;;
70320;SDS011;61127;55.826;37.046;2023-04-24T00:12:05;17.77;;;7.53;;
70320;SDS011;61127;55.826;37.046;2023-04-24T00:14:31;15.37;;;7.67;;
70320;SDS011;61127;55.826;37.046;2023-04-24T00:16:56;21.90;;;8.23;;
70320;SDS011;61127;55.826;37.046;2023-04-24T00:19:22;20.70;;;8.70;;
70320;SDS011;61127;55.826;37.046;2023-04-24T00:21:48;16.05;;;8.02;;
70320;SDS011;61127;55.826;37.046;2023-04-24T00:24:17;24.15;;;8.90;;
70320;SDS011;61127;55.826;37.046;2023-04-24T00:26:43;19.85;;;8.35;;
70320;SDS011;61127;55.826;37.046;2023-04-24T00:29:09;22.37;;;8.10;;
70320;SDS011;61127;55.826;37.046;2023-04-24T00:31:35;20.13;;;8.80;;
70320;SDS011;61127;55.826;37.046;2023-04-24T00:34:01;18.00;;;8.30;;
70320;SDS011;61127;55.826;37.046;2023-04-24T00:36:28;20.40;;;9.25;;
70320;SDS011;61127;55.826;37.046;2023-04-24T00:38:54;17.83;;;7.85;;
70320;SDS011;61127;55.826;37.046;2023-04-24T00:41:19;19.27;;;8.07;;
70320;SDS011;61127;55.826;37.046;2023-04-24T00:43:46;17.98;;;8.00;;
70320;SDS011;61127;55.826;37.046;2023-04-24T00:46:12;18.75;;;8.60;;
70320;SDS011;61127;55.826;37.046;2023-04-24T00:48:40;18.23;;;7.43;;
70320;SDS011;61127;55.826;37.046;2023-04-24T00:51:06;28.98;;;8.43;;
70320;SDS011;61127;55.826;37.046;2023-04-24T00:53:32;20.30;;;7.95;;
70320;SDS011;61127;55.826;37.046;2023-04-24T00:55:58;24.30;;;8.20;;
70320;SDS011;61127;55.826;37.046;2023-04-24T00:58:24;16.80;;;8.13;;
70320;SDS011;61127;55.826;37.046;2023-04-24T01:00:50;19.95;;;7.68;;
70320;SDS011;61127;55.826;37.046;2023-04-24T01:03:22;17.93;;;8.00;;
70320;SDS011;61127;55.826;37.046;2023-04-24T01:05:50;21.48;;;8.57;;
70320;SDS011;61127;55.826;37.046;2023-04-24T01:08:16;18.83;;;8.05;;
70320;SDS011;61127;55.826;37.046;2023-04-24T01:10:42;17.15;;;8.05;;
70320;SDS011;61127;55.826;37.046;2023-04-24T01:13:09;16.73;;;7.50;;
70320;SDS011;61127;55.826;37.046;2023-04-24T01:15:34;26.05;;;8.38;;
70320;SDS011;61127;55.826;37.046;2023-04-24T01:18:00;23.50;;;9.17;;
70320;SDS011;61127;55.826;37.046;2023-04-24T01:20:26;19.80;;;9.80;;
70320;SDS011;61127;55.826;37.046;2023-04-24T01:22:52;20.97;;;9.07;;
70320;SDS011;61127;55.826;37.046;2023-04-24T01:25:18;20.60;;;9.20;;
70320;SDS011;61127;55.826;37.046;2023-04-24T01:27:44;24.15;;;9.52;;
70320;SDS011;61127;55.826;37.046;2023-04-24T01:30:10;22.23;;;9.80;;
70320;SDS011;61127;55.826;37.046;2023-04-24T01:32:36;28.85;;;9.93;;
70320;SDS011;61127;55.826;37.046;2023-04-24T01:35:03;27.42;;;10.20;;
70320;SDS011;61127;55.826;37.046;2023-04-24T01:37:29;32.35;;;11.95;;
70320;SDS011;61127;55.826;37.046;2023-04-24T01:39:56;31.45;;;11.88;;
70320;SDS011;61127;55.826;37.046;2023-04-24T01:42:25;34.13;;;11.50;;
70320;SDS011;61127;55.826;37.046;2023-04-24T01:44:50;33.47;;;11.70;;
70320;SDS011;61127;55.826;37.046;2023-04-24T01:47:16;28.50;;;10.45;;
70320;SDS011;61127;55.826;37.046;2023-04-24T01:49:42;29.53;;;11.43;;
70320;SDS011;61127;55.826;37.046;2023-04-24T01:52:08;26.23;;;11.80;;
70320;SDS011;61127;55.826;37.046;2023-04-24T01:54:33;27.67;;;11.30;;
70320;SDS011;61127;55.826;37.046;2023-04-24T01:57:01;27.77;;;10.68;;
70320;SDS011;61127;55.826;37.046;2023-04-24T01:59:28;35.67;;;13.07;;
70320;SDS011;61127;55.826;37.046;2023-04-24T02:01:53;32.73;;;11.60;;
70320;SDS011;61127;55.826;37.046;2023-04-24T02:04:19;26.50;;;11.32;;
70320;SDS011;61127;55.826;37.046;2023-04-24T02:06:46;33.47;;;11.30;;
70320;SDS011;61127;55.826;37.046;2023-04-24T02:09:12;26.57;;;10.60;;
70320;SDS011;61127;55.826;37.046;2023-04-24T02:11:38;26.83;;;10.40;;
70320;SDS011;61127;55.826;37.046;2023-04-24T02:14:03;28.95;;;11.10;;
70320;SDS011;61127;55.826;37.046;2023-04-24T02:16:31;31.70;;;11.45;;
70320;SDS011;61127;55.826;37.046;2023-04-24T02:18:58;26.42;;;11.35;;
70320;SDS011;61127;55.826;37.046;2023-04-24T02:21:24;27.37;;;11.17;;
70320;SDS011;61127;55.826;37.046;2023-04-24T02:23:49;23.80;;;10.32;;
70320;SDS011;61127;55.826;37.046;2023-04-24T02:26:15;22.50;;;10.60;;
70320;SDS011;61127;55.826;37.046;2023-04-24T02:28:43;29.88;;;11.13;;
70320;SDS011;61127;55.826;37.046;2023-04-24T02:31:10;28.52;;;10.55;;
70320;SDS011;61127;55.826;37.046;2023-04-24T02:33:35;23.47;;;11.10;;
70320;SDS011;61127;55.826;37.046;2023-04-24T02:36:02;27.08;;;10.63;;
70320;SDS011;61127;55.826;37.046;2023-04-24T02:38:28;22.35;;;10.27;;
70320;SDS011;61127;55.826;37.046;2023-04-24T02:40:54;23.60;;;10.27;;
70320;SDS011;61127;55.826;37.046;2023-04-24T02:43:19;22.52;;;9.90;;
70320;SDS011;61127;55.826;37.046;2023-04-24T02:45:45;21.85;;;9.77;;
70320;SDS011;61127;55.826;37.046;2023-04-24T02:48:11;24.00;;;10.87;;
70320;SDS011;61127;55.826;37.046;2023-04-24T02:50:37;22.83;;;10.20;;
70320;SDS011;61127;55.826;37.046;2023-04-24T02:53:02;23.87;;;10.47;;
70320;SDS011;61127;55.826;37.046;2023-04-24T02:55:28;20.85;;;10.27;;
70320;SDS011;61127;55.826;37.046;2023-04-24T02:57:54;24.20;;;11.23;;
70320;SDS011;61127;55.826;37.046;2023-04-24T03:00:20;23.02;;;10.32;;
70320;SDS011;61127;55.826;37.046;2023-04-24T03:02:45;20.07;;;9.70;;
70320;SDS011;61127;55.826;37.046;2023-04-24T03:05:11;18.77;;;9.73;;
70320;SDS011;61127;55.826;37.046;2023-04-24T03:07:39;25.55;;;10.27;;
70320;SDS011;61127;55.826;37.046;2023-04-24T03:10:05;20.30;;;9.50;;
70320;SDS011;61127;55.826;37.046;2023-04-24T03:12:31;23.45;;;10.02;;
70320;SDS011;61127;55.826;37.046;2023-04-24T03:14:57;21.57;;;10.40;;
70320;SDS011;61127;55.826;37.046;2023-04-24T03:17:22;21.00;;;11.25;;
70320;SDS011;61127;55.826;37.046;2023-04-24T03:19:48;23.33;;;12.60;;
70320;SDS011;61127;55.826;37.046;2023-04-24T03:22:14;26.48;;;12.70;;
70320;SDS011;61127;55.826;37.046;2023-04-24T03:24:40;20.20;;;11.63;;
70320;SDS011;61127;55.826;37.046;2023-04-24T03:27:06;24.98;;;11.45;;
70320;SDS011;61127;55.826;37.046;2023-04-24T03:30:01;23.92;;;11.48;;
70320;SDS011;61127;55.826;37.046;2023-04-24T03:32:38;24.88;;;12.05;;
70320;SDS011;61127;55.826;37.046;2023-04-24T03:35:06;32.27;;;12.20;;
70320;SDS011;61127;55.826;37.046;2023-04-24T03:37:33;22.80;;;10.70;;
70320;SDS011;61127;55.826;37.046;2023-04-24T03:40:21;24.58;;;11.73;;
70320;SDS011;61127;55.826;37.046;2023-04-24T03:42:47;25.45;;;11.07;;
70320;SDS011;61127;55.826;37.046;2023-04-24T03:45:13;24.27;;;10.73;;
70320;SDS011;61127;55.826;37.046;2023-04-24T03:47:41;23.50;;;11.00;;
70320;SDS011;61127;55.826;37.046;2023-04-24T03:50:07;23.07;;;11.20;;
70320;SDS011;61127;55.826;37.046;2023-04-24T03:52:34;28.77;;;10.07;;
70320;SDS011;61127;55.826;37.046;2023-04-24T03:55:01;20.10;;;10.90;;
70320;SDS011;61127;55.826;37.046;2023-04-24T03:57:29;20.92;;;9.98;;
70320;SDS011;61127;55.826;37.046;2023-04-24T04:00:05;22.52;;;10.38;;
70320;SDS011;61127;55.826;37.046;2023-04-24T04:02:40;25.00;;;9.43;;
70320;SDS011;61127;55.826;37.046;2023-04-24T04:05:07;21.88;;;9.18;;
70320;SDS011;61127;55.826;37.046;2023-04-24T04:07:33;19.85;;;9.05;;
70320;SDS011;61127;55.826;37.046;2023-04-24T04:09:59;20.20;;;9.07;;
70320;SDS011;61127;55.826;37.046;2023-04-24T04:12:25;24.17;;;9.30;;
70320;SDS011;61127;55.826;37.046;2023-04-24T04:14:50;19.93;;;9.63;;
70320;SDS011;61127;55.826;37.046;2023-04-24T04:17:16;20.53;;;10.10;;
70320;SDS011;61127;55.826;37.046;2023-04-24T04:19:42;19.67;;;8.80;;
70320;SDS011;61127;55.826;37.046;2023-04-24T04:22:08;22.83;;;10.37;;
70320;SDS011;61127;55.826;37.046;2023-04-24T04:24:41;22.20;;;9.75;;
70320;SDS011;61127;55.826;37.046;2023-04-24T04:27:09;25.65;;;10.65;;
70320;SDS011;61127;55.826;37.046;2023-04-24T04:29:43;25.05;;;10.30;;
70320;SDS011;61127;55.826;37.046;2023-04-24T04:32:11;20.08;;;10.60;;
70320;SDS011;61127;55.826;37.046;2023-04-24T04:34:36;18.87;;;10.20;;
70320;SDS011;61127;55.826;37.046;2023-04-24T04:37:04;19.05;;;10.32;;
70320;SDS011;61127;55.826;37.046;2023-04-24T04:39:59;21.42;;;9.88;;
70320;SDS011;61127;55.826;37.046;2023-04-24T04:42:29;20.60;;;10.70;;
70320;SDS011;61127;55.826;37.046;2023-04-24T04:44:55;18.80;;;11.23;;
70320;SDS011;61127;55.826;37.046;2023-04-24T04:47:30;20.83;;;11.48;;
70320;SDS011;61127;55.826;37.046;2023-04-24T04:49:58;21.38;;;11.48;;
70320;SDS011;61127;55.826;37.046;2023-04-24T04:52:29;23.67;;;11.10;;
70320;SDS011;61127;55.826;37.046;2023-04-24T04:55:07;23.00;;;11.30;;
70320;SDS011;61127;55.826;37.046;2023-04-24T04:57:51;19.07;;;11.17;;
70320;SDS011;61127;55.826;37.046;2023-04-24T05:00:18;20.23;;;11.15;;
70320;SDS011;61127;55.826;37.046;2023-04-24T05:02:49;20.70;;;11.32;;
70320;SDS011;61127;55.826;37.046;2023-04-24T05:05:15;17.25;;;11.18;;
70320;SDS011;61127;55.826;37.046;2023-04-24T05:07:43;16.47;;;10.30;;
70320;SDS011;61127;55.826;37.046;2023-04-24T05:10:09;20.15;;;10.68;;
70320;SDS011;61127;55.826;37.046;2023-04-24T05:12:35;23.40;;;10.85;;
70320;SDS011;61127;55.826;37.046;2023-04-24T05:15:02;18.42;;;10.45;;
70320;SDS011;61127;55.826;37.046;2023-04-24T05:17:29;18.80;;;11.00;;
70320;SDS011;61127;55.826;37.046;2023-04-24T05:19:57;20.90;;;10.82;;
70320;SDS011;61127;55.826;37.046;2023-04-24T05:22:23;18.02;;;10.55;;
70320;SDS011;61127;55.826;37.046;2023-04-24T05:24:51;19.38;;;10.63;;
70320;SDS011;61127;55.826;37.046;2023-04-24T05:27:32;20.92;;;10.30;;
70320;SDS011;61127;55.826;37.046;2023-04-24T05:30:01;15.93;;;10.40;;
70320;SDS011;61127;55.826;37.046;2023-04-24T05:32:29;19.10;;;10.18;;
70320;SDS011;61127;55.826;37.046;2023-04-24T05:34:55;21.48;;;10.65;;
70320;SDS011;61127;55.826;37.046;2023-04-24T05:37:21;17.53;;;10.13;;
70320;SDS011;61127;55.826;37.046;2023-04-24T05:39:47;20.75;;;10.13;;
70320;SDS011;61127;55.826;37.046;2023-04-24T05:42:12;19.13;;;10.00;;
70320;SDS011;61127;55.826;37.046;2023-04-24T05:44:38;16.77;;;9.70;;
70320;SDS011;61127;55.826;37.046;2023-04-24T05:47:04;15.80;;;9.50;;
70320;SDS011;61127;55.826;37.046;2023-04-24T05:49:30;15.48;;;9.88;;
70320;SDS011;61127;55.826;37.046;2023-04-24T05:51:56;17.48;;;10.13;;
70320;SDS011;61127;55.826;37.046;2023-04-24T05:54:22;24.58;;;10.10;;
70320;SDS011;61127;55.826;37.046;2023-04-24T05:56:48;17.93;;;10.37;;
70320;SDS011;61127;55.826;37.046;2023-04-24T05:59:21;19.60;;;9.65;;
70320;SDS011;61127;55.826;37.046;2023-04-24T06:01:47;13.30;;;9.47;;
70320;SDS011;61127;55.826;37.046;2023-04-24T06:04:17;21.70;;;10.18;;
70320;SDS011;61127;55.826;37.046;2023-04-24T06:06:42;14.25;;;9.32;;
70320;SDS011;61127;55.826;37.046;2023-04-24T06:09:08;18.70;;;9.40;;
70320;SDS011;61127;55.826;37.046;2023-04-24T06:11:33;14.40;;;9.00;;
70320;SDS011;61127;55.826;37.046;2023-04-24T06:14:07;13.88;;;9.10;;
70320;SDS011;61127;55.826;37.046;2023-04-24T06:17:01;15.15;;;9.05;;
70320;SDS011;61127;55.826;37.046;2023-04-24T06:19:39;15.57;;;8.55;;
70320;SDS011;61127;55.826;37.046;2023-04-24T06:22:18;16.87;;;8.43;;
70320;SDS011;61127;55.826;37.046;2023-04-24T06:24:43;15.38;;;8.80;;
70320;SDS011;61127;55.826;37.046;2023-04-24T06:27:09;13.67;;;8.27;;
70320;SDS011;61127;55.826;37.046;2023-04-24T06:29:36;16.75;;;9.57;;
70320;SDS011;61127;55.826;37.046;2023-04-24T06:32:02;15.63;;;9.23;;
70320;SDS011;61127;55.826;37.046;2023-04-24T06:34:27;12.93;;;9.43;;
70320;SDS011;61127;55.826;37.046;2023-04-24T06:36:53;19.00;;;9.52;;
70320;SDS011;61127;55.826;37.046;2023-04-24T06:39:20;15.40;;;9.47;;
70320;SDS011;61127;55.826;37.046;2023-04-24T06:41:45;17.58;;;9.27;;
70320;SDS011;61127;55.826;37.046;2023-04-24T06:44:18;16.50;;;9.50;;
70320;SDS011;61127;55.826;37.046;2023-04-24T06:46:43;16.10;;;9.60;;
70320;SDS011;61127;55.826;37.046;2023-04-24T06:49:09;17.53;;;9.93;;
70320;SDS011;61127;55.826;37.046;2023-04-24T06:51:35;16.73;;;8.90;;
70320;SDS011;61127;55.826;37.046;2023-04-24T06:54:01;13.88;;;9.00;;
70320;SDS011;61127;55.826;37.046;2023-04-24T06:56:27;15.10;;;8.67;;
70320;SDS011;61127;55.826;37.046;2023-04-24T06:58:54;14.07;;;8.90;;
70320;SDS011;61127;55.826;37.046;2023-04-24T07:01:20;14.38;;;8.85;;
70320;SDS011;61127;55.826;37.046;2023-04-24T07:03:45;13.07;;;8.17;;
70320;SDS011;61127;55.826;37.046;2023-04-24T07:06:11;12.68;;;8.75;;
70320;SDS011;61127;55.826;37.046;2023-04-24T07:08:38;15.20;;;9.17;;
70320;SDS011;61127;55.826;37.046;2023-04-24T07:11:03;16.15;;;8.93;;
70320;SDS011;61127;55.826;37.046;2023-04-24T07:13:29;17.30;;;9.07;;
70320;SDS011;61127;55.826;37.046;2023-04-24T07:15:55;18.13;;;8.67;;
70320;SDS011;61127;55.826;37.046;2023-04-24T07:18:21;13.82;;;8.40;;
70320;SDS011;61127;55.826;37.046;2023-04-24T07:20:47;11.45;;;8.10;;
70320;SDS011;61127;55.826;37.046;2023-04-24T07:23:15;13.13;;;8.37;;
70320;SDS011;61127;55.826;37.046;2023-04-24T07:26:00;13.57;;;7.68;;
70320;SDS011;61127;55.826;37.046;2023-04-24T07:28:26;12.93;;;8.10;;
70320;SDS011;61127;55.826;37.046;2023-04-24T07:30:51;15.10;;;8.07;;
70320;SDS011;61127;55.826;37.046;2023-04-24T07:33:19;14.45;;;7.50;;
70320;SDS011;61127;55.826;37.046;2023-04-24T07:35:44;13.07;;;7.47;;
70320;SDS011;61127;55.826;37.046;2023-04-24T07:38:10;13.90;;;7.65;;
70320;SDS011;61127;55.826;37.046;2023-04-24T07:40:37;15.53;;;7.80;;
70320;SDS011;61127;55.826;37.046;2023-04-24T07:43:02;10.95;;;7.32;;
70320;SDS011;61127;55.826;37.046;2023-04-24T07:45:28;11.43;;;6.60;;
70320;SDS011;61127;55.826;37.046;2023-04-24T07:47:54;7.95;;;6.05;;
70320;SDS011;61127;55.826;37.046;2023-04-24T07:50:19;11.30;;;6.10;;
70320;SDS011;61127;55.826;37.046;2023-04-24T07:52:45;13.55;;;5.90;;
70320;SDS011;61127;55.826;37.046;2023-04-24T07:55:11;14.37;;;5.30;;
70320;SDS011;61127;55.826;37.046;2023-04-24T07:57:37;9.55;;;5.20;;
70320;SDS011;61127;55.826;37.046;2023-04-24T08:00:03;7.20;;;4.60;;
70320;SDS011;61127;55.826;37.046;2023-04-24T08:03:04;7.40;;;4.43;;
70320;SDS011;61127;55.826;37.046;2023-04-24T08:05:30;6.43;;;3.83;;
70320;SDS011;61127;55.826;37.046;2023-04-24T08:07:56;7.97;;;3.67;;
70320;SDS011;61127;55.826;37.046;2023-04-24T08:10:22;9.50;;;3.80;;
70320;SDS011;61127;55.826;37.046;2023-04-24T08:12:48;7.00;;;3.95;;
70320;SDS011;61127;55.826;37.046;2023-04-24T08:15:15;6.43;;;4.00;;
70320;SDS011;61127;55.826;37.046;2023-04-24T08:17:41;11.17;;;4.00;;
70320;SDS011;61127;55.826;37.046;2023-04-24T08:20:08;8.93;;;4.05;;
70320;SDS011;61127;55.826;37.046;2023-04-24T08:22:41;7.40;;;4.10;;
70320;SDS011;61127;55.826;37.046;2023-04-24T08:25:09;5.95;;;3.88;;
70320;SDS011;61127;55.826;37.046;2023-04-24T08:27:36;11.02;;;4.05;;
70320;SDS011;61127;55.826;37.046;2023-04-24T08:30:03;7.30;;;3.97;;
70320;SDS011;61127;55.826;37.046;2023-04-24T08:32:32;6.65;;;3.85;;
70320;SDS011;61127;55.826;37.046;2023-04-24T08:34:58;8.35;;;4.30;;
70320;SDS011;61127;55.826;37.046;2023-04-24T08:37:25;5.95;;;4.00;;
70320;SDS011;61127;55.826;37.046;2023-04-24T08:39:52;6.90;;;4.07;;
70320;SDS011;61127;55.826;37.046;2023-04-24T08:42:19;6.75;;;3.80;;
70320;SDS011;61127;55.826;37.046;2023-04-24T08:44:46;8.75;;;4.20;;
70320;SDS011;61127;55.826;37.046;2023-04-24T08:47:14;5.40;;;3.67;;
70320;SDS011;61127;55.826;37.046;2023-04-24T08:49:40;6.35;;;3.47;;
70320;SDS011;61127;55.826;37.046;2023-04-24T08:52:08;8.47;;;3.67;;
70320;SDS011;61127;55.826;37.046;2023-04-24T08:54:34;8.60;;;4.03;;
70320;SDS011;61127;55.826;37.046;2023-04-24T08:57:01;6.93;;;4.22;;
70320;SDS011;61127;55.826;37.046;2023-04-24T08:59:29;8.77;;;4.13;;
70320;SDS011;61127;55.826;37.046;2023-04-24T09:01:56;5.75;;;3.97;;
70320;SDS011;61127;55.826;37.046;2023-04-24T09:04:23;8.27;;;4.20;;
70320;SDS011;61127;55.826;37.046;2023-04-24T09:06:56;10.80;;;4.55;;
70320;SDS011;61127;55.826;37.046;2023-04-24T09:09:23;6.60;;;3.70;;
70320;SDS011;61127;55.826;37.046;2023-04-24T09:11:50;7.05;;;3.80;;
70320;SDS011;61127;55.826;37.046;2023-04-24T09:14:20;6.70;;;4.50;;
70320;SDS011;61127;55.826;37.046;2023-04-24T09:16:46;6.97;;;4.60;;
70320;SDS011;61127;55.826;37.046;2023-04-24T09:19:12;11.18;;;4.63;;
70320;SDS011;61127;55.826;37.046;2023-04-24T09:21:38;6.53;;;4.20;;
70320;SDS011;61127;55.826;37.046;2023-04-24T09:24:06;8.95;;;4.20;;
70320;SDS011;61127;55.826;37.046;2023-04-24T09:26:39;8.07;;;4.23;;
70320;SDS011;61127;55.826;37.046;2023-04-24T09:29:05;6.75;;;4.47;;
70320;SDS011;61127;55.826;37.046;2023-04-24T09:31:31;8.00;;;4.10;;
70320;SDS011;61127;55.826;37.046;2023-04-24T09:33:58;11.02;;;4.28;;
70320;SDS011;61127;55.826;37.046;2023-04-24T09:36:35;7.03;;;4.63;;
70320;SDS011;61127;55.826;37.046;2023-04-24T09:39:04;8.50;;;4.10;;
70320;SDS011;61127;55.826;37.046;2023-04-24T09:41:34;6.32;;;4.10;;
70320;SDS011;61127;55.826;37.046;2023-04-24T09:44:13;5.88;;;3.90;;
70320;SDS011;61127;55.826;37.046;2023-04-24T09:46:41;6.80;;;4.10;;
70320;SDS011;61127;55.826;37.046;2023-04-24T09:49:08;7.78;;;4.15;;
70320;SDS011;61127;55.826;37.046;2023-04-24T09:51:36;7.30;;;4.00;;
70320;SDS011;61127;55.826;37.046;2023-04-24T09:54:24;7.00;;;4.70;;
70320;SDS011;61127;55.826;37.046;2023-04-24T09:56:51;7.68;;;4.63;;
70320;SDS011;61127;55.826;37.046;2023-04-24T09:59:17;6.32;;;4.57;;
70320;SDS011;61127;55.826;37.046;2023-04-24T10:01:44;6.82;;;4.63;;
70320;SDS011;61127;55.826;37.046;2023-04-24T10:04:23;7.70;;;4.53;;
70320;SDS011;61127;55.826;37.046;2023-04-24T10:06:52;7.38;;;4.55;;
70320;SDS011;61127;55.826;37.046;2023-04-24T10:09:20;9.73;;;5.10;;
70320;SDS011;61127;55.826;37.046;2023-04-24T10:11:48;8.02;;;5.10;;
70320;SDS011;61127;55.826;37.046;2023-04-24T10:14:16;10.55;;;5.13;;
70320;SDS011;61127;55.826;37.046;2023-04-24T10:16:43;7.13;;;4.50;;
70320;SDS011;61127;55.826;37.046;2023-04-24T10:19:12;7.25;;;4.95;;
70320;SDS011;61127;55.826;37.046;2023-04-24T10:21:43;8.45;;;5.00;;
70320;SDS011;61127;55.826;37.046;2023-04-24T10:24:13;7.07;;;4.93;;
70320;SDS011;61127;55.826;37.046;2023-04-24T10:26:41;6.70;;;5.05;;
70320;SDS011;61127;55.826;37.046;2023-04-24T10:29:08;6.27;;;4.83;;
70320;SDS011;61127;55.826;37.046;2023-04-24T10:31:38;9.82;;;4.45;;
70320;SDS011;61127;55.826;37.046;2023-04-24T10:34:05;8.30;;;4.50;;
70320;SDS011;61127;55.826;37.046;2023-04-24T10:36:35;8.35;;;4.50;;
70320;SDS011;61127;55.826;37.046;2023-04-24T10:39:07;11.95;;;5.05;;
70320;SDS011;61127;55.826;37.046;2023-04-24T10:41:37;7.97;;;4.67;;
70320;SDS011;61127;55.826;37.046;2023-04-24T10:44:06;8.52;;;4.95;;
70320;SDS011;61127;55.826;37.046;2023-04-24T10:46:34;9.88;;;5.10;;
70320;SDS011;61127;55.826;37.046;2023-04-24T10:49:03;8.63;;;5.35;;
70320;SDS011;61127;55.826;37.046;2023-04-24T10:51:48;8.38;;;5.25;;
70320;SDS011;61127;55.826;37.046;2023-04-24T10:54:29;8.20;;;5.30;;
70320;SDS011;61127;55.826;37.046;2023-04-24T11:02:45;8.32;;;6.00;;
70320;SDS011;61127;55.826;37.046;2023-04-24T11:05:15;7.95;;;6.03;;
70320;SDS011;61127;55.826;37.046;2023-04-24T11:13:22;11.25;;;5.70;;
70320;SDS011;61127;55.826;37.046;2023-04-24T11:18:41;13.02;;;5.10;;
70320;SDS011;61127;55.826;37.046;2023-04-24T11:21:12;6.87;;;4.83;;
70320;SDS011;61127;55.826;37.046;2023-04-24T11:23:39;8.60;;;5.18;;
70320;SDS011;61127;55.826;37.046;2023-04-24T11:26:09;8.57;;;5.38;;
70320;SDS011;61127;55.826;37.046;2023-04-24T11:28:46;8.43;;;5.05;;
70320;SDS011;61127;55.826;37.046;2023-04-24T11:34:10;8.67;;;5.30;;
70320;SDS011;61127;55.826;37.046;2023-04-24T11:36:39;7.25;;;5.38;;
70320;SDS011;61127;55.826;37.046;2023-04-24T11:39:11;7.90;;;5.10;;
70320;SDS011;61127;55.826;37.046;2023-04-24T11:41:37;8.20;;;5.85;;
70320;SDS011;61127;55.826;37.046;2023-04-24T11:44:05;8.70;;;6.00;;
70320;SDS011;61127;55.826;37.046;2023-04-24T11:46:34;9.93;;;6.00;;
70320;SDS011;61127;55.826;37.046;2023-04-24T11:49:00;7.75;;;4.90;;
70320;SDS011;61127;55.826;37.046;2023-04-24T11:51:27;7.22;;;4.55;;
70320;SDS011;61127;55.826;37.046;2023-04-24T11:53:53;6.78;;;4.65;;
70320;SDS011;61127;55.826;37.046;2023-04-24T11:56:24;7.32;;;5.00;;
70320;SDS011;61127;55.826;37.046;2023-04-24T11:58:53;9.87;;;5.10;;
70320;SDS011;61127;55.826;37.046;2023-04-24T12:01:20;14.98;;;5.15;;
70320;SDS011;61127;55.826;37.046;2023-04-24T12:03:50;8.82;;;4.88;;
70320;SDS011;61127;55.826;37.046;2023-04-24T12:06:20;10.75;;;4.75;;
70320;SDS011;61127;55.826;37.046;2023-04-24T12:08:46;13.17;;;5.43;;
70320;SDS011;61127;55.826;37.046;2023-04-24T12:11:14;8.52;;;4.40;;
70320;SDS011;61127;55.826;37.046;2023-04-24T12:13:43;13.25;;;4.82;;
70320;SDS011;61127;55.826;37.046;2023-04-24T12:16:09;8.95;;;4.70;;
70320;SDS011;61127;55.826;37.046;2023-04-24T12:18:35;8.25;;;4.72;;
70320;SDS011;61127;55.826;37.046;2023-04-24T12:21:19;14.00;;;4.80;;
70320;SDS011;61127;55.826;37.046;2023-04-24T12:23:47;10.40;;;4.97;;
70320;SDS011;61127;55.826;37.046;2023-04-24T12:30:38;11.68;;;4.63;;
70320;SDS011;61127;55.826;37.046;2023-04-24T12:33:10;9.40;;;4.63;;
70320;SDS011;61127;55.826;37.046;2023-04-24T12:35:36;7.70;;;4.27;;
70320;SDS011;61127;55.826;37.046;2023-04-24T12:38:09;8.02;;;4.90;;
70320;SDS011;61127;55.826;37.046;2023-04-24T12:40:37;9.00;;;4.50;;
70320;SDS011;61127;55.826;37.046;2023-04-24T12:43:12;8.45;;;4.50;;
70320;SDS011;61127;55.826;37.046;2023-04-24T12:45:40;6.83;;;3.90;;
70320;SDS011;61127;55.826;37.046;2023-04-24T12:48:06;6.97;;;4.70;;
70320;SDS011;61127;55.826;37.046;2023-04-24T12:50:32;8.90;;;4.82;;
70320;SDS011;61127;55.826;37.046;2023-04-24T12:52:58;11.30;;;5.03;;
70320;SDS011;61127;55.826;37.046;2023-04-24T12:55:25;9.07;;;4.80;;
70320;SDS011;61127;55.826;37.046;2023-04-24T12:57:50;8.60;;;4.80;;
70320;SDS011;61127;55.826;37.046;2023-04-24T13:00:18;6.82;;;4.82;;
70320;SDS011;61127;55.826;37.046;2023-04-24T13:02:44;12.88;;;4.45;;
70320;SDS011;61127;55.826;37.046;2023-04-24T13:05:10;10.33;;;4.43;;
70320;SDS011;61127;55.826;37.046;2023-04-24T13:07:36;5.22;;;4.00;;
70320;SDS011;61127;55.826;37.046;2023-04-24T13:10:02;5.85;;;4.13;;
70320;SDS011;61127;55.826;37.046;2023-04-24T13:12:30;6.30;;;4.35;;
70320;SDS011;61127;55.826;37.046;2023-04-24T13:14:57;9.18;;;4.70;;
70320;SDS011;61127;55.826;37.046;2023-04-24T13:17:24;7.27;;;4.53;;
70320;SDS011;61127;55.826;37.046;2023-04-24T13:19:50;8.60;;;5.57;;
70320;SDS011;61127;55.826;37.046;2023-04-24T13:22:17;7.85;;;4.90;;
70320;SDS011;61127;55.826;37.046;2023-04-24T13:24:46;11.15;;;5.07;;
70320;SDS011;61127;55.826;37.046;2023-04-24T13:27:14;5.82;;;4.68;;
70320;SDS011;61127;55.826;37.046;2023-04-24T13:29:41;8.93;;;4.27;;
70320;SDS011;61127;55.826;37.046;2023-04-24T13:32:07;7.65;;;4.43;;
70320;SDS011;61127;55.826;37.046;2023-04-24T13:34:34;6.78;;;4.40;;
70320;SDS011;61127;55.826;37.046;2023-04-24T13:37:00;9.20;;;4.60;;
70320;SDS011;61127;55.826;37.046;2023-04-24T13:39:27;6.97;;;4.10;;
70320;SDS011;61127;55.826;37.046;2023-04-24T13:41:53;6.53;;;4.67;;
70320;SDS011;61127;55.826;37.046;2023-04-24T13:44:20;8.13;;;4.15;;
70320;SDS011;61127;55.826;37.046;2023-04-24T13:46:47;7.53;;;3.90;;
70320;SDS011;61127;55.826;37.046;2023-04-24T13:49:14;7.65;;;3.75;;
70320;SDS011;61127;55.826;37.046;2023-04-24T13:51:41;7.87;;;4.23;;
70320;SDS011;61127;55.826;37.046;2023-04-24T13:54:08;8.27;;;4.20;;
70320;SDS011;61127;55.826;37.046;2023-04-24T13:56:34;8.93;;;4.43;;
70320;SDS011;61127;55.826;37.046;2023-04-24T13:59:00;7.40;;;4.45;;
70320;SDS011;61127;55.826;37.046;2023-04-24T14:01:26;8.10;;;4.40;;
70320;SDS011;61127;55.826;37.046;2023-04-24T14:03:52;8.30;;;4.30;;
70320;SDS011;61127;55.826;37.046;2023-04-24T14:06:19;6.88;;;3.83;;
70320;SDS011;61127;55.826;37.046;2023-04-24T14:08:45;6.03;;;3.90;;
70320;SDS011;61127;55.826;37.046;2023-04-24T14:11:12;7.27;;;4.00;;
70320;SDS011;61127;55.826;37.046;2023-04-24T14:13:38;6.97;;;4.10;;
70320;SDS011;61127;55.826;37.046;2023-04-24T14:16:06;10.07;;;4.50;;
70320;SDS011;61127;55.826;37.046;2023-04-24T14:18:32;6.75;;;4.20;;
70320;SDS011;61127;55.826;37.046;2023-04-24T14:20:58;8.17;;;4.17;;
70320;SDS011;61127;55.826;37.046;2023-04-24T14:23:24;8.02;;;4.50;;
70320;SDS011;61127;55.826;37.046;2023-04-24T14:25:50;9.13;;;4.40;;
70320;SDS011;61127;55.826;37.046;2023-04-24T14:28:21;9.15;;;4.43;;
70320;SDS011;61127;55.826;37.046;2023-04-24T14:30:47;9.97;;;4.60;;
70320;SDS011;61127;55.826;37.046;2023-04-24T14:33:13;8.27;;;4.93;;
70320;SDS011;61127;55.826;37.046;2023-04-24T14:35:40;11.05;;;5.72;;
70320;SDS011;61127;55.826;37.046;2023-04-24T14:38:08;9.55;;;5.35;;
70320;SDS011;61127;55.826;37.046;2023-04-24T14:40:34;10.13;;;5.32;;
70320;SDS011;61127;55.826;37.046;2023-04-24T14:43:00;10.00;;;4.80;;
70320;SDS011;61127;55.826;37.046;2023-04-24T14:45:27;8.88;;;5.10;;
70320;SDS011;61127;55.826;37.046;2023-04-24T14:47:53;9.65;;;4.60;;
70320;SDS011;61127;55.826;37.046;2023-04-24T14:50:19;8.80;;;4.75;;